Time;durP1;ratioP1;P1;durP2;ratioP2;P2;SDS_P1;SDS_P2;PMS_P1;PMS_P2;Temp;Humidity;BMP_temperature;BMP_pressure;BME280_temperature;BME280_humidity;BME280_pressure;Samples;Min_cycle;Max_cycle;Signal;HPM_P1;HPM_P2
2021/11/09 00:02:03;;;;;;;;;;;12.00;60.80;;;;;;4373771;32;20041;-50
2021/11/09 00:05:15;;;;;;;;;;;12.00;60.70;;;;;;4373846;32;20023;-50
2021/11/09 00:07:26;;;;;;;;;;;12.00;60.70;;;;;;4370878;32;19970;-51
2021/11/09 00:10:02;;;;;;;;;;;12.00;60.70;;;;;;4373429;32;19981;-48
2021/11/09 00:12:53;;;;;;;;;;;12.00;60.60;;;;;;4372195;32;19996;-50
2021/11/09 00:15:21;;;;;;;;;;;12.00;60.50;;;;;;4373252;32;20013;-50
2021/11/09 00:17:49;;;;;;;;;;;12.00;60.40;;;;;;4371817;32;19970;-49
2021/11/09 00:20:17;;;;;;;;;;;12.00;60.30;;;;;;4372210;32;20072;-44
2021/11/09 00:22:44;;;;;;;;;;;12.00;60.30;;;;;;4371798;32;19973;-51
2021/11/09 00:25:10;;;;;;;;;;;11.90;60.30;;;;;;4383428;32;19962;-52
2021/11/09 00:27:36;;;;;;;;;;;11.90;60.50;;;;;;4388579;32;19962;-49
2021/11/09 00:30:04;;;;;;;;;;;11.90;60.60;;;;;;4374693;32;19966;-48
2021/11/09 00:32:30;;;;;;;;;;;11.90;60.70;;;;;;4388289;32;20390;-50
2021/11/09 00:34:56;;;;;;;;;;;11.90;60.70;;;;;;4388483;32;19965;-47
2021/11/09 00:37:22;;;;;;;;;;;11.80;60.80;;;;;;4374992;32;20110;-50
2021/11/09 00:39:48;;;;;;;;;;;11.80;60.90;;;;;;4388209;32;19972;-50
2021/11/09 00:42:15;;;;;;;;;;;11.80;61.00;;;;;;4388308;32;19969;-53
2021/11/09 00:44:41;;;;;;;;;;;11.80;61.20;;;;;;4387328;32;20038;-48
2021/11/09 00:47:08;;;;;;;;;;;11.80;61.30;;;;;;4373353;32;19982;-50
2021/11/09 00:49:34;;;;;;;;;;;11.80;61.40;;;;;;4372868;32;19962;-49
2021/11/09 00:52:01;;;;;;;;;;;11.80;61.40;;;;;;4373530;32;19962;-49
2021/11/09 00:54:28;;;;;;;;;;;11.80;61.40;;;;;;4359156;32;19974;-46
2021/11/09 00:56:54;;;;;;;;;;;11.80;61.40;;;;;;4373358;32;20009;-52
2021/11/09 00:59:20;;;;;;;;;;;11.90;61.40;;;;;;4373497;32;19973;-47
2021/11/09 01:01:47;;;;;;;;;;;11.90;61.30;;;;;;4373272;32;19976;-52
2021/11/09 01:04:13;;;;;;;;;;;11.90;61.30;;;;;;4373103;32;19958;-51
2021/11/09 01:06:39;;;;;;;;;;;11.90;61.20;;;;;;4373151;32;19968;-52
2021/11/09 01:09:06;;;;;;;;;;;12.00;61.20;;;;;;4373261;32;19973;-50
2021/11/09 01:11:33;;;;;;;;;;;12.00;61.10;;;;;;4359687;32;20085;-48
2021/11/09 01:14:00;;;;;;;;;;;12.00;61.00;;;;;;4373467;32;19958;-49
2021/11/09 01:16:26;;;;;;;;;;;12.10;61.00;;;;;;4373647;32;19962;-51
2021/11/09 01:18:54;;;;;;;;;;;12.00;60.80;;;;;;4372681;32;20032;-50
2021/11/09 01:21:21;;;;;;;;;;;12.10;60.80;;;;;;4373023;32;19990;-51
2021/11/09 01:23:51;;;;;;;;;;;12.10;60.80;;;;;;4372637;32;20407;-49
2021/11/09 01:26:17;;;;;;;;;;;12.10;60.70;;;;;;4373479;32;20009;-49
2021/11/09 01:28:45;;;;;;;;;;;12.20;60.70;;;;;;4373323;32;19966;-47
2021/11/09 01:31:11;;;;;;;;;;;12.20;60.70;;;;;;4362006;32;19962;-49
2021/11/09 01:33:38;;;;;;;;;;;12.20;60.70;;;;;;4375667;32;20429;-50
2021/11/09 01:36:04;;;;;;;;;;;12.20;60.70;;;;;;4375310;32;19989;-46
2021/11/09 01:38:34;;;;;;;;;;;12.20;60.50;;;;;;4375533;32;19963;-47
2021/11/09 01:41:00;;;;;;;;;;;12.20;60.50;;;;;;4375547;32;20402;-49
2021/11/09 01:43:27;;;;;;;;;;;12.20;60.60;;;;;;4376070;32;19970;-49
2021/11/09 01:45:54;;;;;;;;;;;12.20;60.60;;;;;;4375334;32;19962;-48
2021/11/09 01:48:20;;;;;;;;;;;12.20;60.60;;;;;;4375339;32;19986;-51
2021/11/09 01:50:53;;;;;;;;;;;12.20;60.50;;;;;;4375269;32;20061;-51
2021/11/09 01:53:20;;;;;;;;;;;12.20;60.40;;;;;;4357579;32;19982;-52
2021/11/09 01:55:46;;;;;;;;;;;12.20;60.40;;;;;;4357860;32;19982;-50
2021/11/09 01:58:13;;;;;;;;;;;12.20;60.50;;;;;;4345680;32;20359;-51
2021/11/09 02:00:43;;;;;;;;;;;12.20;60.50;;;;;;4358025;32;20388;-47
2021/11/09 02:03:09;;;;;;;;;;;12.10;60.50;;;;;;4358072;32;19966;-49
2021/11/09 02:05:35;;;;;;;;;;;12.10;60.60;;;;;;4357322;32;19976;-50
2021/11/09 02:08:03;;;;;;;;;;;12.10;60.50;;;;;;4357643;32;19978;-48
2021/11/09 02:10:31;;;;;;;;;;;12.10;60.50;;;;;;4358210;32;20508;-50
2021/11/09 02:12:57;;;;;;;;;;;12.10;61.20;;;;;;4357781;32;19962;-50
2021/11/09 02:15:25;;;;;;;;;;;12.10;60.60;;;;;;4357733;32;19985;-50
2021/11/09 02:17:51;;;;;;;;;;;12.00;60.60;;;;;;4357561;32;19962;-51
2021/11/09 02:20:19;;;;;;;;;;;12.00;60.60;;;;;;4357805;32;20005;-49
2021/11/09 02:22:45;;;;;;;;;;;12.00;60.70;;;;;;4357532;32;19967;-51
2021/11/09 02:25:13;;;;;;;;;;;12.00;60.80;;;;;;4341657;33;20090;-50
2021/11/09 02:27:40;;;;;;;;;;;12.00;60.80;;;;;;4342932;33;20043;-49
2021/11/09 02:30:08;;;;;;;;;;;12.10;60.70;;;;;;4336652;32;19973;-47
2021/11/09 02:32:34;;;;;;;;;;;12.00;60.60;;;;;;4372497;32;19981;-48
2021/11/09 02:35:00;;;;;;;;;;;12.00;60.60;;;;;;4372320;32;20505;-51
2021/11/09 02:37:27;;;;;;;;;;;12.00;60.50;;;;;;4372321;32;19974;-50
2021/11/09 02:39:53;;;;;;;;;;;12.10;60.60;;;;;;4371929;32;20086;-49
2021/11/09 02:42:20;;;;;;;;;;;12.00;60.50;;;;;;4371945;32;19962;-49
2021/11/09 02:44:50;;;;;;;;;;;12.10;60.40;;;;;;4370947;32;19970;-48
2021/11/09 02:47:17;;;;;;;;;;;12.10;60.50;;;;;;4357125;32;19971;-47
2021/11/09 02:50:06;;;;;;;;;;;12.10;60.50;;;;;;4357227;32;19966;-51
2021/11/09 02:52:33;;;;;;;;;;;12.10;60.40;;;;;;4357345;32;20051;-48
2021/11/09 02:55:11;;;;;;;;;;;12.10;60.40;;;;;;4357473;32;19978;-50
2021/11/09 02:57:53;;;;;;;;;;;12.00;60.40;;;;;;4374333;32;20469;-48
2021/11/09 03:00:24;;;;;;;;;;;12.00;60.60;;;;;;4374176;32;20441;-49
2021/11/09 03:03:18;;;;;;;;;;;12.00;60.60;;;;;;4374469;32;20390;-48
2021/11/09 03:05:50;;;;;;;;;;;12.00;60.70;;;;;;4373639;32;20497;-50
2021/11/09 03:08:36;;;;;;;;;;;12.00;60.80;;;;;;4374052;32;20033;-50
2021/11/09 03:11:03;;;;;;;;;;;11.90;60.80;;;;;;4362949;32;19962;-49
2021/11/09 03:13:29;;;;;;;;;;;12.00;60.90;;;;;;4360706;32;19986;-51
2021/11/09 03:16:01;;;;;;;;;;;12.00;60.90;;;;;;4373802;32;20104;-52
2021/11/09 03:18:29;;;;;;;;;;;12.00;60.90;;;;;;4373915;32;19970;-52
2021/11/09 03:23:06;;;;;;;;;;;12.00;60.80;;;;;;4374004;32;20411;-49
2021/11/09 03:40:05;;;;;;;;;;;11.90;61.20;;;;;;4374127;32;20037;-50
2021/11/09 03:45:20;;;;;;;;;;;11.90;61.30;;;;;;4373580;32;20019;-50
2021/11/09 03:47:50;;;;;;;;;;;11.90;61.30;;;;;;4373743;32;19978;-54
2021/11/09 03:50:18;;;;;;;;;;;11.90;61.20;;;;;;4372001;32;19973;-51
2021/11/09 03:52:53;;;;;;;;;;;12.00;61.20;;;;;;4373099;32;19986;-49
2021/11/09 04:00:57;;;;;;;;;;;12.10;61.00;;;;;;4373758;32;19959;-48
2021/11/09 04:06:26;;;;;;;;;;;12.10;60.80;;;;;;4373185;32;20427;-46
2021/11/09 04:09:40;;;;;;;;;;;12.10;60.80;;;;;;4373273;32;20360;-52
2021/11/09 04:11:49;;;;;;;;;;;12.20;60.80;;;;;;4370618;32;20112;-47
2021/11/09 04:14:27;;;;;;;;;;;12.20;60.70;;;;;;4373187;32;19998;-48
2021/11/09 04:17:12;;;;;;;;;;;12.20;60.70;;;;;;4373290;32;19973;-51
2021/11/09 04:19:51;;;;;;;;;;;12.20;60.60;;;;;;4373874;32;19965;-41
2021/11/09 04:52:21;;;;;;;;;;;12.10;58.50;;;;;;4373087;32;20049;-50
2021/11/09 05:11:10;;;;;;;;;;;12.50;57.90;;;;;;4375649;32;20393;-50
2021/11/09 05:13:36;;;;;;;;;;;12.50;57.50;;;;;;4375476;32;20535;-49
2021/11/09 05:16:02;;;;;;;;;;;12.60;57.60;;;;;;4375988;32;20009;-50
2021/11/09 05:18:29;;;;;;;;;;;12.70;58.00;;;;;;4376041;32;20413;-53
2021/11/09 05:20:55;;;;;;;;;;;12.90;57.90;;;;;;4375839;32;19977;-52
2021/11/09 05:23:22;;;;;;;;;;;13.10;57.90;;;;;;4375396;32;19977;-51
2021/11/09 05:25:49;;;;;;;;;;;13.40;57.20;;;;;;4375398;32;19962;-53
2021/11/09 05:28:15;;;;;;;;;;;13.70;56.90;;;;;;4375549;32;19969;-51
2021/11/09 05:30:45;;;;;;;;;;;14.00;56.60;;;;;;4375740;32;19962;-52
2021/11/09 05:33:12;;;;;;;;;;;14.30;55.80;;;;;;4375756;32;19962;-48
2021/11/09 05:35:38;;;;;;;;;;;14.50;55.00;;;;;;4375418;32;20448;-51
2021/11/09 05:38:05;;;;;;;;;;;14.70;54.70;;;;;;4375529;32;19962;-49
2021/11/09 05:40:35;;;;;;;;;;;15.00;54.50;;;;;;4361388;32;20343;-50
2021/11/09 05:43:01;;;;;;;;;;;15.30;54.50;;;;;;4375234;32;20406;-54
2021/11/09 05:45:28;;;;;;;;;;;15.60;53.30;;;;;;4375065;32;20385;-49
2021/11/09 05:47:54;;;;;;;;;;;15.80;51.60;;;;;;4375550;32;19963;-51
2021/11/09 05:50:21;;;;;;;;;;;15.90;50.00;;;;;;4375445;32;19961;-49
2021/11/09 05:52:47;;;;;;;;;;;15.90;49.90;;;;;;4375072;32;19965;-49
2021/11/09 05:55:13;;;;;;;;;;;16.00;49.10;;;;;;4375125;32;20031;-49
2021/11/09 05:57:42;;;;;;;;;;;16.00;47.80;;;;;;4374916;32;19958;-47
2021/11/09 06:00:09;;;;;;;;;;;16.00;47.60;;;;;;4375237;32;19967;-51
2021/11/09 06:02:36;;;;;;;;;;;16.00;46.90;;;;;;4375030;32;19984;-48
2021/11/09 06:05:03;;;;;;;;;;;16.00;46.70;;;;;;4374970;32;20057;-49
2021/11/09 06:07:30;;;;;;;;;;;15.90;46.40;;;;;;4375298;32;20009;-49
2021/11/09 06:09:56;;;;;;;;;;;15.90;46.50;;;;;;4375346;32;19982;-48
2021/11/09 06:12:22;;;;;;;;;;;15.90;46.00;;;;;;4374925;32;19985;-47
2021/11/09 06:14:48;;;;;;;;;;;15.90;46.20;;;;;;4374999;32;20037;-47
2021/11/09 06:17:14;;;;;;;;;;;15.80;46.10;;;;;;4375218;32;19966;-51
2021/11/09 06:19:41;;;;;;;;;;;15.90;45.80;;;;;;4373562;32;19959;-45
2021/11/09 06:22:07;;;;;;;;;;;15.90;45.70;;;;;;4374764;32;20496;-48
2021/11/09 06:24:33;;;;;;;;;;;15.90;45.80;;;;;;4381092;32;19966;-46
2021/11/09 06:26:59;;;;;;;;;;;15.90;45.90;;;;;;4375796;32;20062;-45
2021/11/09 06:29:26;;;;;;;;;;;15.90;46.10;;;;;;4389954;32;19972;-45
2021/11/09 06:31:53;;;;;;;;;;;16.00;46.60;;;;;;4389412;32;19982;-43
2021/11/09 06:34:19;;;;;;;;;;;16.20;46.70;;;;;;4390128;32;19989;-45
2021/11/09 06:36:45;;;;;;;;;;;16.40;45.80;;;;;;4390065;32;19961;-44
2021/11/09 06:39:11;;;;;;;;;;;16.40;45.50;;;;;;4389454;32;19964;-47
2021/11/09 06:41:37;;;;;;;;;;;16.50;45.50;;;;;;4389478;32;19962;-45
2021/11/09 06:44:04;;;;;;;;;;;16.70;45.60;;;;;;4389729;32;19965;-47
2021/11/09 06:46:30;;;;;;;;;;;16.90;45.50;;;;;;4376997;32;19970;-47
2021/11/09 06:48:56;;;;;;;;;;;17.00;44.60;;;;;;4374426;32;20029;-46
2021/11/09 06:51:22;;;;;;;;;;;17.10;43.90;;;;;;4374325;32;19981;-46
2021/11/09 06:53:49;;;;;;;;;;;17.00;43.60;;;;;;4360535;32;20392;-44
2021/11/09 06:56:15;;;;;;;;;;;16.90;43.50;;;;;;4374741;32;20039;-47
2021/11/09 06:58:41;;;;;;;;;;;16.80;43.50;;;;;;4374128;32;20528;-46
2021/11/09 07:01:07;;;;;;;;;;;16.70;43.60;;;;;;4373857;32;20653;-45
2021/11/09 07:03:34;;;;;;;;;;;16.60;43.50;;;;;;4373969;32;19965;-48
2021/11/09 07:06:01;;;;;;;;;;;16.40;43.80;;;;;;4360033;32;20468;-47
2021/11/09 07:08:27;;;;;;;;;;;16.30;43.70;;;;;;4374084;32;19966;-47
2021/11/09 07:10:53;;;;;;;;;;;16.20;43.90;;;;;;4374064;32;20339;-46
2021/11/09 07:13:19;;;;;;;;;;;16.10;44.10;;;;;;4374221;32;20149;-47
2021/11/09 07:15:46;;;;;;;;;;;16.00;44.40;;;;;;4374058;32;19997;-48
2021/11/09 07:18:12;;;;;;;;;;;15.80;44.60;;;;;;4374155;32;20040;-46
2021/11/09 07:20:38;;;;;;;;;;;15.80;44.90;;;;;;4373824;32;19974;-49
2021/11/09 07:23:05;;;;;;;;;;;15.70;45.00;;;;;;4374527;32;19969;-48
2021/11/09 07:25:31;;;;;;;;;;;15.70;45.20;;;;;;4373644;32;19970;-48
2021/11/09 07:27:59;;;;;;;;;;;15.60;45.10;;;;;;4373535;32;19965;-48
2021/11/09 07:30:28;;;;;;;;;;;15.60;45.40;;;;;;4359899;32;20503;-50
2021/11/09 07:32:55;;;;;;;;;;;15.60;45.90;;;;;;4373559;32;20014;-48
2021/11/09 07:35:21;;;;;;;;;;;15.50;45.30;;;;;;4373524;32;19974;-49
2021/11/09 07:37:47;;;;;;;;;;;15.40;45.20;;;;;;4374335;32;19977;-48
2021/11/09 07:40:13;;;;;;;;;;;15.20;45.30;;;;;;4373502;32;19974;-48
2021/11/09 07:42:47;;;;;;;;;;;15.20;45.70;;;;;;4374147;32;20016;-46
2021/11/09 07:45:15;;;;;;;;;;;15.20;45.80;;;;;;4373225;32;20352;-47
2021/11/09 07:47:41;;;;;;;;;;;15.10;45.80;;;;;;4373643;32;20065;-50
2021/11/09 07:50:07;;;;;;;;;;;15.10;45.60;;;;;;4373469;32;19970;-49
2021/11/09 07:52:34;;;;;;;;;;;15.00;45.60;;;;;;4373585;32;19993;-48
2021/11/09 07:55:04;;;;;;;;;;;14.90;45.80;;;;;;4373597;32;20066;-48
2021/11/09 07:57:41;;;;;;;;;;;14.90;46.20;;;;;;4373589;32;19985;-49
2021/11/09 08:00:20;;;;;;;;;;;15.00;46.90;;;;;;4373275;32;19967;-47
2021/11/09 08:08:27;;;;;;;;;;;15.10;46.70;;;;;;4355780;32;20005;-47
2021/11/09 08:10:53;;;;;;;;;;;15.10;46.80;;;;;;4356486;32;19981;-49
2021/11/09 08:13:19;;;;;;;;;;;15.20;46.40;;;;;;4355918;32;19978;-49
2021/11/09 08:15:46;;;;;;;;;;;15.30;45.50;;;;;;4355858;32;19982;-48
2021/11/09 08:18:15;;;;;;;;;;;15.40;45.10;;;;;;4331172;32;19990;-52
2021/11/09 08:20:41;;;;;;;;;;;15.50;44.60;;;;;;4355816;32;20533;-52
2021/11/09 08:23:08;;;;;;;;;;;15.40;44.50;;;;;;4343577;32;19974;-51
2021/11/09 08:25:34;;;;;;;;;;;15.40;44.60;;;;;;4343218;32;19970;-47
2021/11/09 08:28:02;;;;;;;;;;;15.60;45.00;;;;;;4355490;32;20058;-50
2021/11/09 08:30:28;;;;;;;;;;;15.70;45.00;;;;;;4355632;32;19970;-51
2021/11/09 08:32:55;;;;;;;;;;;15.80;44.70;;;;;;4343378;32;20047;-49
2021/11/09 08:35:23;;;;;;;;;;;16.10;44.30;;;;;;4355582;32;20105;-47
2021/11/09 08:37:52;;;;;;;;;;;16.30;43.60;;;;;;4355974;32;19963;-48
2021/11/09 08:40:23;;;;;;;;;;;16.40;43.20;;;;;;4365380;32;20051;-49
2021/11/09 08:42:53;;;;;;;;;;;16.50;43.10;;;;;;4376446;32;20050;-46
2021/11/09 08:47:59;;;;;;;;;;;16.70;42.70;;;;;;4375814;32;20410;-44
2021/11/09 08:50:26;;;;;;;;;;;16.70;42.60;;;;;;4376150;32;20448;-48
2021/11/09 08:52:55;;;;;;;;;;;16.70;42.40;;;;;;4376060;32;19977;-49
2021/11/09 08:58:12;;;;;;;;;;;16.80;42.80;;;;;;4376006;32;19977;-46
2021/11/09 09:04:11;;;;;;;;;;;16.80;42.30;;;;;;4375805;32;20439;-48
2021/11/09 09:06:16;;;;;;;;;;;16.70;42.00;;;;;;4375854;32;19981;-45
2021/11/09 09:08:42;;;;;;;;;;;16.70;41.90;;;;;;4375746;32;19978;-45
2021/11/09 09:11:09;;;;;;;;;;;16.70;42.00;;;;;;4375866;32;19972;-46
2021/11/09 09:13:36;;;;;;;;;;;16.60;41.90;;;;;;4375624;32;19975;-46
2021/11/09 09:16:02;;;;;;;;;;;16.50;42.00;;;;;;4375713;32;19968;-48
2021/11/09 09:18:29;;;;;;;;;;;16.50;42.10;;;;;;4375489;32;19966;-49
2021/11/09 09:20:59;;;;;;;;;;;16.50;42.10;;;;;;4376069;32;19962;-39
2021/11/09 09:23:31;;;;;;;;;;;16.50;42.10;;;;;;4375893;32;20051;-46
2021/11/09 09:55:39;;;;;;;;;;;15.20;42.70;;;;;;4375273;32;19958;-45
2021/11/09 09:58:07;;;;;;;;;;;15.20;42.70;;;;;;4374937;32;20055;-48
2021/11/09 10:00:33;;;;;;;;;;;15.10;43.50;;;;;;4375085;32;19970;-48
2021/11/09 10:03:00;;;;;;;;;;;15.10;42.90;;;;;;4375304;32;19966;-51
2021/11/09 10:05:26;;;;;;;;;;;15.10;43.00;;;;;;4375524;32;20012;-47
2021/11/09 10:07:54;;;;;;;;;;;15.10;43.20;;;;;;4375191;32;19969;-48
2021/11/09 10:10:34;;;;;;;;;;;15.00;43.10;;;;;;4375059;32;20005;-48
2021/11/09 10:13:08;;;;;;;;;;;15.00;43.10;;;;;;4375241;32;19977;-47
2021/11/09 10:15:34;;;;;;;;;;;15.00;43.30;;;;;;4374889;32;19974;-50
2021/11/09 10:18:10;;;;;;;;;;;14.90;43.40;;;;;;4373401;32;20398;-49
2021/11/09 10:20:47;;;;;;;;;;;14.90;43.70;;;;;;4374783;32;19977;-49
2021/11/09 10:23:19;;;;;;;;;;;14.90;44.00;;;;;;4374842;32;19958;-50
2021/11/09 10:25:46;;;;;;;;;;;14.80;44.10;;;;;;4388490;32;19977;-49
2021/11/09 10:28:14;;;;;;;;;;;14.70;44.30;;;;;;4389835;32;19965;-49
2021/11/09 10:30:54;;;;;;;;;;;14.70;44.50;;;;;;4390044;32;20049;-48
2021/11/09 10:33:23;;;;;;;;;;;14.70;44.80;;;;;;4389576;32;20394;-48
2021/11/09 10:35:49;;;;;;;;;;;14.70;45.10;;;;;;4376114;32;20045;-50
2021/11/09 10:38:15;;;;;;;;;;;14.70;45.10;;;;;;4389646;32;19954;-49
2021/11/09 10:40:48;;;;;;;;;;;14.70;45.30;;;;;;4389662;32;20354;-50
2021/11/09 10:43:16;;;;;;;;;;;14.70;45.50;;;;;;4389622;32;20464;-51
2021/11/09 10:45:43;;;;;;;;;;;14.80;45.50;;;;;;4382299;32;19966;-47
2021/11/09 10:48:15;;;;;;;;;;;14.80;45.40;;;;;;4360326;32;20429;-49
2021/11/09 10:50:43;;;;;;;;;;;14.90;45.90;;;;;;4361332;32;19969;-47
2021/11/09 10:53:19;;;;;;;;;;;14.80;45.40;;;;;;4374366;32;19959;-49
2021/11/09 10:55:56;;;;;;;;;;;14.90;45.60;;;;;;4374544;32;19969;-50
2021/11/09 10:58:42;;;;;;;;;;;14.90;45.80;;;;;;4374606;32;19962;-49
2021/11/09 11:06:20;;;;;;;;;;;15.10;45.70;;;;;;4360670;32;19970;-47
2021/11/09 11:08:53;;;;;;;;;;;15.20;45.70;;;;;;4373909;32;19966;-45
2021/11/09 11:11:22;;;;;;;;;;;15.20;45.70;;;;;;4374289;32;19981;-48
2021/11/09 11:13:50;;;;;;;;;;;15.30;45.70;;;;;;4374173;32;19973;-51
2021/11/09 11:16:17;;;;;;;;;;;15.30;45.50;;;;;;4360213;32;19966;-48
2021/11/09 11:18:46;;;;;;;;;;;15.40;45.40;;;;;;4373992;32;19961;-47
2021/11/09 11:21:15;;;;;;;;;;;15.40;45.20;;;;;;4373985;32;20527;-47
2021/11/09 11:23:42;;;;;;;;;;;15.50;45.10;;;;;;4373387;32;19981;-47
2021/11/09 11:26:09;;;;;;;;;;;15.50;44.80;;;;;;4374764;32;20037;-48
2021/11/09 11:28:40;;;;;;;;;;;15.50;44.60;;;;;;4373783;32;20402;-50
2021/11/09 11:31:06;;;;;;;;;;;15.40;44.70;;;;;;4373715;32;19978;-48
2021/11/09 11:33:34;;;;;;;;;;;15.40;44.70;;;;;;4359918;32;20049;-41
2021/11/09 11:36:00;;;;;;;;;;;15.40;44.60;;;;;;4373803;32;19984;-50
2021/11/09 11:38:27;;;;;;;;;;;15.30;44.50;;;;;;4373494;32;20060;-48
2021/11/09 11:40:57;;;;;;;;;;;15.20;44.70;;;;;;4347527;32;20629;-49
2021/11/09 11:43:51;;;;;;;;;;;15.20;44.90;;;;;;4373280;32;20433;-47
2021/11/09 11:46:32;;;;;;;;;;;15.10;45.20;;;;;;4371238;32;19985;-47
2021/11/09 11:49:00;;;;;;;;;;;15.00;45.30;;;;;;4373892;32;19989;-48
2021/11/09 11:51:27;;;;;;;;;;;14.90;45.40;;;;;;4372225;32;19970;-48
2021/11/09 11:53:54;;;;;;;;;;;14.90;45.30;;;;;;4372012;32;21057;-48
2021/11/09 11:56:44;;;;;;;;;;;14.80;45.20;;;;;;4373410;32;19962;-49
2021/11/09 11:59:34;;;;;;;;;;;14.70;45.10;;;;;;4368517;32;20053;-48
2021/11/09 12:02:08;;;;;;;;;;;14.60;45.00;;;;;;4373425;32;19977;-51
2021/11/09 12:04:41;;;;;;;;;;;14.60;45.20;;;;;;4373434;32;19981;-42
2021/11/09 12:07:08;;;;;;;;;;;14.50;45.40;;;;;;4373325;32;19981;-48
2021/11/09 12:09:36;;;;;;;;;;;14.50;45.60;;;;;;4373318;32;19966;-48
2021/11/09 12:12:11;;;;;;;;;;;14.50;45.60;;;;;;4372408;32;19990;-48
2021/11/09 12:14:58;;;;;;;;;;;14.50;45.60;;;;;;4373397;32;19957;-49
2021/11/09 12:17:43;;;;;;;;;;;14.60;45.80;;;;;;4373660;32;20038;-50
2021/11/09 12:20:20;;;;;;;;;;;14.70;45.80;;;;;;4373395;32;19988;-48
2021/11/09 12:22:48;;;;;;;;;;;14.70;45.70;;;;;;4371429;32;19962;-48
2021/11/09 12:25:33;;;;;;;;;;;14.70;45.50;;;;;;4371332;32;20053;-50
2021/11/09 12:28:01;;;;;;;;;;;14.70;45.60;;;;;;4373080;32;19965;-48
2021/11/09 12:33:15;;;;;;;;;;;14.60;45.70;;;;;;4373266;32;20042;-46
2021/11/09 12:35:47;;;;;;;;;;;14.50;45.80;;;;;;4373503;32;19981;-51
2021/11/09 12:38:21;;;;;;;;;;;14.40;45.90;;;;;;4373062;32;20487;-49
2021/11/09 12:40:52;;;;;;;;;;;14.40;46.20;;;;;;4373165;32;19970;-48
2021/11/09 12:43:28;;;;;;;;;;;14.20;46.30;;;;;;4373446;32;19967;-46
2021/11/09 12:46:07;;;;;;;;;;;14.00;44.00;;;;;;4373339;32;20186;-47
2021/11/09 12:48:38;;;;;;;;;;;13.70;43.10;;;;;;4372539;32;20425;-51
2021/11/09 12:51:11;;;;;;;;;;;13.50;43.30;;;;;;4373453;32;19989;-48
2021/11/09 12:53:41;;;;;;;;;;;13.30;43.60;;;;;;4373391;32;19970;-39
2021/11/09 12:56:12;;;;;;;;;;;13.20;43.90;;;;;;4373602;32;19979;-47
2021/11/09 12:58:50;;;;;;;;;;;13.00;43.80;;;;;;4373605;32;19970;-44
2021/11/09 13:01:24;;;;;;;;;;;12.80;43.90;;;;;;4373201;32;19993;-46
2021/11/09 13:06:55;;;;;;;;;;;12.40;44.40;;;;;;4373250;32;19996;-45
2021/11/09 13:09:28;;;;;;;;;;;12.40;44.70;;;;;;4373282;32;19973;-47
2021/11/09 13:12:08;;;;;;;;;;;12.40;44.80;;;;;;4373049;32;19977;-46
2021/11/09 13:14:46;;;;;;;;;;;12.40;44.80;;;;;;4359611;32;20041;-47
2021/11/09 13:17:21;;;;;;;;;;;12.40;44.90;;;;;;4359148;32;19970;-48
2021/11/09 13:19:56;;;;;;;;;;;12.60;45.00;;;;;;4373050;32;20012;-50
2021/11/09 13:22:28;;;;;;;;;;;12.70;44.90;;;;;;4372756;32;19996;-49
2021/11/09 13:24:57;;;;;;;;;;;12.80;44.60;;;;;;4372975;32;19977;-49
2021/11/09 13:27:44;;;;;;;;;;;12.90;44.40;;;;;;4375711;32;20070;-54
2021/11/09 13:30:20;;;;;;;;;;;12.90;44.50;;;;;;4375910;32;19994;-50
2021/11/09 13:32:51;;;;;;;;;;;13.00;44.40;;;;;;4375694;32;20057;-49
2021/11/09 13:35:26;;;;;;;;;;;13.10;44.20;;;;;;4375179;32;20393;-50
2021/11/09 13:38:15;;;;;;;;;;;13.20;44.20;;;;;;4375499;32;19970;-50
2021/11/09 13:40:52;;;;;;;;;;;13.30;44.00;;;;;;4375231;32;19990;-47
2021/11/09 13:43:20;;;;;;;;;;;13.30;43.40;;;;;;4375180;32;19968;-48
2021/11/09 13:45:54;;;;;;;;;;;13.20;43.50;;;;;;4375716;32;19965;-47
2021/11/09 13:48:20;;;;;;;;;;;13.10;43.70;;;;;;4373163;32;19974;-48
2021/11/09 13:50:51;;;;;;;;;;;12.90;44.00;;;;;;4375408;32;20090;-50
2021/11/09 13:53:35;;;;;;;;;;;12.80;44.10;;;;;;4375643;32;20503;-48
2021/11/09 13:56:01;;;;;;;;;;;12.60;44.60;;;;;;4375177;32;20491;-51
2021/11/09 13:58:28;;;;;;;;;;;12.40;45.20;;;;;;4375494;32;20052;-48
2021/11/09 14:01:01;;;;;;;;;;;12.20;45.70;;;;;;4374960;32;19977;-49
2021/11/09 14:11:21;;;;;;;;;;;12.00;46.50;;;;;;4361111;32;19986;-41
2021/11/09 14:14:01;;;;;;;;;;;12.00;46.60;;;;;;4373795;32;20434;-47
2021/11/09 14:16:37;;;;;;;;;;;12.00;46.70;;;;;;4374810;32;20435;-48
2021/11/09 14:19:10;;;;;;;;;;;12.10;46.70;;;;;;4374882;32;19988;-49
2021/11/09 14:21:38;;;;;;;;;;;12.10;46.70;;;;;;4375044;32;19978;-49
2021/11/09 14:24:19;;;;;;;;;;;12.20;46.60;;;;;;4377992;32;20402;-49
2021/11/09 14:26:47;;;;;;;;;;;12.20;46.60;;;;;;4356917;32;20009;-48
2021/11/09 14:29:17;;;;;;;;;;;12.30;46.70;;;;;;4357529;32;20038;-39
2021/11/09 14:31:55;;;;;;;;;;;12.30;46.70;;;;;;4357462;32;20044;-43
2021/11/09 14:34:21;;;;;;;;;;;12.30;46.70;;;;;;4357003;32;20435;-50
2021/11/09 14:36:50;;;;;;;;;;;12.20;46.60;;;;;;4356928;32;19978;-49
2021/11/09 14:39:18;;;;;;;;;;;12.20;46.70;;;;;;4356972;32;20076;-49
2021/11/09 14:47:40;;;;;;;;;;;12.10;47.40;;;;;;4298272;33;20123;-49
2021/11/09 14:50:12;;;;;;;;;;;12.10;48.30;;;;;;4297648;33;20442;-49
2021/11/09 14:52:41;;;;;;;;;;;12.00;47.70;;;;;;4298018;33;19976;-47
2021/11/09 14:55:41;;;;;;;;;;;12.00;47.90;;;;;;4298107;33;19963;-50
2021/11/09 14:58:23;;;;;;;;;;;11.90;48.10;;;;;;4307517;33;20074;-50
2021/11/09 15:00:50;;;;;;;;;;;11.90;48.10;;;;;;4312588;33;20058;-48
2021/11/09 15:03:16;;;;;;;;;;;11.80;48.10;;;;;;4312853;33;19970;-47
2021/11/09 15:05:43;;;;;;;;;;;11.70;48.10;;;;;;4312958;33;19994;-50
2021/11/09 15:08:41;;;;;;;;;;;11.70;48.40;;;;;;4312453;33;20030;-48
2021/11/09 15:11:11;;;;;;;;;;;11.60;48.60;;;;;;4312063;33;19971;-48
2021/11/09 15:27:25;;;;;;;;;;;11.30;50.60;;;;;;4373880;32;19993;-53
2021/11/09 15:29:57;;;;;;;;;;;11.30;50.20;;;;;;4373889;32;19962;-50
2021/11/09 15:32:35;;;;;;;;;;;11.20;50.50;;;;;;4374092;32;19997;-51
2021/11/09 15:35:09;;;;;;;;;;;11.20;50.70;;;;;;4373503;32;20456;-49
2021/11/09 15:37:43;;;;;;;;;;;11.20;50.90;;;;;;4373675;32;19965;-50
2021/11/09 15:40:11;;;;;;;;;;;11.20;50.90;;;;;;4373906;32;20038;-48
2021/11/09 15:42:39;;;;;;;;;;;11.20;51.00;;;;;;4373266;32;20074;-50
2021/11/09 15:45:06;;;;;;;;;;;11.10;51.00;;;;;;4373714;32;20070;-47
2021/11/09 15:47:33;;;;;;;;;;;11.20;51.10;;;;;;4373321;32;19994;-49
2021/11/09 15:50:00;;;;;;;;;;;11.20;51.00;;;;;;4372203;32;20494;-48
2021/11/09 15:52:26;;;;;;;;;;;11.20;51.00;;;;;;4373073;32;19974;-49
2021/11/09 15:54:52;;;;;;;;;;;11.30;51.10;;;;;;4373934;32;20037;-51
2021/11/09 15:57:19;;;;;;;;;;;11.30;51.00;;;;;;4372264;32;19969;-46
2021/11/09 15:59:46;;;;;;;;;;;11.30;51.10;;;;;;4373523;32;19972;-49
2021/11/09 16:02:12;;;;;;;;;;;11.30;51.10;;;;;;4373637;32;20472;-48
2021/11/09 16:04:41;;;;;;;;;;;11.30;51.00;;;;;;4373445;32;20005;-50
2021/11/09 16:07:08;;;;;;;;;;;11.40;51.10;;;;;;4373439;32;19992;-48
2021/11/09 16:09:35;;;;;;;;;;;11.30;51.10;;;;;;4373195;32;20359;-48
2021/11/09 16:12:01;;;;;;;;;;;11.30;51.10;;;;;;4373406;32;20430;-50
2021/11/09 16:14:28;;;;;;;;;;;11.30;51.10;;;;;;4373514;32;20382;-49
2021/11/09 16:16:54;;;;;;;;;;;11.30;51.30;;;;;;4373666;32;19966;-49
2021/11/09 16:19:20;;;;;;;;;;;11.30;51.40;;;;;;4371890;32;20033;-48
2021/11/09 16:21:47;;;;;;;;;;;11.30;51.40;;;;;;4373713;32;19957;-49
2021/11/09 16:24:14;;;;;;;;;;;11.30;51.60;;;;;;4374276;32;19974;-54
2021/11/09 16:26:41;;;;;;;;;;;11.20;51.60;;;;;;4374793;32;19976;-48
2021/11/09 16:29:08;;;;;;;;;;;11.20;51.70;;;;;;4388611;32;19966;-48
2021/11/09 16:31:35;;;;;;;;;;;11.10;51.70;;;;;;4388113;32;20062;-49
2021/11/09 16:34:01;;;;;;;;;;;11.00;51.80;;;;;;4388586;32;20068;-48
2021/11/09 16:36:29;;;;;;;;;;;11.00;52.00;;;;;;4374475;32;19977;-49
2021/11/09 16:38:59;;;;;;;;;;;10.90;52.10;;;;;;4388697;32;19962;-47
2021/11/09 16:41:30;;;;;;;;;;;10.90;52.20;;;;;;4387998;32;20460;-50
2021/11/09 16:43:59;;;;;;;;;;;10.90;52.40;;;;;;4388576;32;19962;-47
2021/11/09 16:49:02;;;;;;;;;;;10.90;52.50;;;;;;4372941;32;19958;-49
2021/11/09 16:51:32;;;;;;;;;;;10.90;52.50;;;;;;4373476;32;19966;-51
2021/11/09 16:54:06;;;;;;;;;;;10.90;52.50;;;;;;4373036;32;20041;-49
2021/11/09 16:56:41;;;;;;;;;;;10.90;52.60;;;;;;4373054;32;19977;-50
2021/11/09 17:02:06;;;;;;;;;;;11.00;52.50;;;;;;4375799;32;20430;-48
2021/11/09 18:20:40;;;;;;;;;;;11.00;49.90;;;;;;4375148;32;20053;-48
2021/11/09 18:23:06;;;;;;;;;;;10.90;49.80;;;;;;4375047;32;19966;-47
2021/11/09 18:25:33;;;;;;;;;;;10.80;49.60;;;;;;4374550;32;19978;-46
2021/11/09 18:27:59;;;;;;;;;;;10.80;49.70;;;;;;4374895;32;19966;-47
2021/11/09 18:30:31;;;;;;;;;;;10.80;49.70;;;;;;4375590;32;19978;-47